CMA CGM Herodote — MFEP — position and weather

sailwx.info

Track history (hours):
 
Tides and Currents Weather Stations Pressure Air Temp Water Temp Dewpoint Dewpoint Depression Visibility Wind Speed Wind Dir Waves Ship Positions

CMA CGM Herodote

Last reported at 2016-Jun-29 12:33 UTC. Time now 2016-Jun-29 12:54 UTC.
Position N 51°53' E 003°31'.

Length 170 m; draft 8.5 m.

Type: Ship (hazmat cat A). MMSI: 235051085.

Date/timePositionNaut miles runAvg speedWind from/ knotsBaromVisibWave heightAir tempDewpointWater temp
2016-Jun-29 12:33N 51°53' E 003°31'10 9.5
2016-Jun-29 11:30N 51°48' E 003°17'8 8.8
2016-Jun-29 10:33N 51°40' E 003°19'1313.0
2016-Jun-29 09:33N 51°29' E 003°30'9 9.2
2016-Jun-29 08:34N 51°24' E 003°43'9 8.8
2016-Jun-29 07:33N 51°23' E 003°57'5 5.1
2016-Jun-29 06:33N 51°22' E 004°05'8 7.6
2016-Jun-29 05:34N 51°20' E 004°17'2 2.2
2016-Jun-29 04:31N 51°18' E 004°16'0 0.0
2016-Jun-29 03:31N 51°18' E 004°16'0 0.0
2016-Jun-29 02:31N 51°18' E 004°16'0 0.0
2016-Jun-29 01:31N 51°18' E 004°16'0 0.0
2016-Jun-29 00:31N 51°18' E 004°16'0 0.0
2016-Jun-28 23:31N 51°18' E 004°16'0 0.0
2016-Jun-28 22:31N 51°18' E 004°16'0 0.0
2016-Jun-28 21:28N 51°18' E 004°16'0 0.0
2016-Jun-28 20:31N 51°18' E 004°16'0 0.0
2016-Jun-28 19:31N 51°18' E 004°16'0 0.0
2016-Jun-28 18:28N 51°18' E 004°16'0 0.0
2016-Jun-28 17:31N 51°18' E 004°16'0 0.0
2016-Jun-28 16:33N 51°18' E 004°16'7 6.6
2016-Jun-28 15:33N 51°23' E 004°10'8 8.1
2016-Jun-28 14:33N 51°23' E 003°57'9 9.2
2016-Jun-28 13:34N 51°24' E 003°43'10 9.9
2016-Jun-28 12:34N 51°25' E 003°27'1212.0
2016-Jun-28 11:34N 51°24' E 003°08'1212.4
2016-Jun-28 10:33N 51°22' E 002°48'9 8.5
2016-Jun-28 09:33N 51°26' E 002°36'0 0.2
2016-Jun-28 08:33N 51°26' E 002°36'0 0.0
2016-Jun-28 07:30N 51°26' E 002°36'0 0.0
2016-Jun-28 06:30N 51°26' E 002°36'0 0.0
2016-Jun-28 04:33N 51°26' E 002°36'5 5.1
2016-Jun-28 03:34N 51°22' E 002°32'1515.2
2016-Jun-28 02:33N 51°19' E 002°08'1615.9
2016-Jun-28 01:34N 51°29' E 001°48'1313.1
2016-Jun-28 00:34N 51°28' E 001°27'1312.8
2016-Jun-27 23:33N 51°30' E 001°07'1313.3
2016-Jun-27 22:33N 51°29' E 000°45'1212.5
2016-Jun-27 21:34N 51°27' E 000°26'4 3.5
2016-Jun-27 20:34N 51°27' E 000°20'0 0.0
2016-Jun-27 19:34N 51°27' E 000°20'0 0.0
2016-Jun-27 18:34N 51°27' E 000°20'0 0.0
2016-Jun-27 17:34N 51°27' E 000°20'0 0.0
2016-Jun-27 16:34N 51°27' E 000°20'0 0.0
2016-Jun-27 15:34N 51°27' E 000°20'0 0.0
2016-Jun-27 14:34N 51°27' E 000°20'0 0.0
2016-Jun-27 13:34N 51°27' E 000°20'0 0.0
2016-Jun-27 12:34N 51°27' E 000°20'0 0.0
2016-Jun-27 11:34N 51°27' E 000°20'0 0.0
2016-Jun-27 10:34N 51°27' E 000°20'0 0.0
2016-Jun-27 09:34N 51°27' E 000°20'0 0.0
2016-Jun-27 08:34N 51°27' E 000°20'0 0.0
2016-Jun-27 07:34N 51°27' E 000°20'1 1.5
2016-Jun-27 06:34N 51°27' E 000°22'9 9.2
2016-Jun-27 05:33N 51°30' E 000°36'1413.7
2016-Jun-27 04:33N 51°29' E 000°58'1514.6
2016-Jun-27 03:33N 51°29' E 001°22'1211.5
2016-Jun-27 02:33N 51°21' E 001°35'1413.6
2016-Jun-27 01:34N 51°08' E 001°42'1413.7
2016-Jun-27 00:33N 50°58' E 001°27'1413.6
2016-Jun-26 23:33N 50°45' E 001°20'3213.4
2016-Jun-26 21:12N 50°28' E 000°38'914.1
2016-Jun-26 20:33N 50°25' E 000°25'1413.8
2016-Jun-26 19:33N 50°22' E 000°04'1413.6
2016-Jun-26 18:33N 50°18' W 000°17'1313.1
2016-Jun-26 17:33N 50°14' W 000°36'1312.5
2016-Jun-26 16:33N 50°11' W 000°55'1413.1
2016-Jun-26 15:27N 50°08' W 001°17'1314.3
2016-Jun-26 14:33N 50°04' W 001°36'1615.5
2016-Jun-26 13:31N 49°59' W 001°60'1616.3
2016-Jun-26 12:33N 49°56' W 002°24'1616.2
2016-Jun-26 11:34N 49°51' W 002°47'1615.7
2016-Jun-26 10:34N 49°43' W 003°09'1616.4
2016-Jun-26 09:33N 49°34' W 003°30'1716.3
2016-Jun-26 08:31N 49°25' W 003°52'6316.0
2016-Jun-26 04:33N 48°54' W 005°17'1312.7
2016-Jun-26 03:33N 48°48' W 005°33'61617.0
2016-Jun-24 15:23N 39°00' W 009°52'1517.5
2016-Jun-24 14:32N 38°45' W 009°52'1717.3
2016-Jun-24 13:34N 38°29' W 009°48'1717.1
2016-Jun-24 12:33N 38°12' W 009°42'1817.6
2016-Jun-24 11:33N 37°55' W 009°38'1818.0
2016-Jun-24 10:33N 37°37' W 009°33'2218.5
2016-Jun-24 09:20N 37°15' W 009°27'1518.8
2016-Jun-24 08:33N 37°01' W 009°22'1916.9
2016-Jun-24 07:27N 36°45' W 009°10'5117.3
2016-Jun-24 04:29N 36°29' W 008°09'1717.7
2016-Jun-24 03:30N 36°24' W 007°48'1717.8
2016-Jun-24 02:34N 36°18' W 007°29'4117.5
2016-Jun-24 00:14N 36°05' W 006°41'3217.3
2016-Jun-23 22:21N 35°57' W 006°02'1517.5
2016-Jun-23 21:29N 35°57' W 005°43'160146.4
2016-Jun-23 20:24N 36°23' W 002°27'0 0.0
2016-Jun-23 19:33N 36°23' W 002°27'8 6.2
2016-Jun-23 18:19N 36°22' W 002°37'0 0.0
2016-Jun-23 17:28N 36°22' W 002°37'8 6.0
2016-Jun-23 16:11N 36°23' W 002°27'0 0.0
2016-Jun-23 15:20N 36°23' W 002°27'0 0.0
2016-Jun-23 14:29N 36°23' W 002°27'15177.6
2016-Jun-23 12:32N 35°57' W 005°32'1211.8
2016-Jun-23 11:33N 36°00' W 005°18'140108.8
2016-Jun-23 10:16N 36°23' W 002°27'8 3.7
2016-Jun-23 08:11N 36°22' W 002°37'0 0.0
2016-Jun-23 07:20N 36°22' W 002°37'8 3.6
2016-Jun-23 05:12N 36°23' W 002°27'5711.4
2016-Jun-23 00:12N 37°02' W 001°35'1218.1
2016-Jun-22 23:34N 37°10' W 001°25'2118.0
2016-Jun-22 22:22N 37°26' W 001°07'1113.3
2016-Jun-22 21:31N 37°35' W 000°59'2 0.2
2016-Jun-22 07:30N 37°33' W 000°59'1313.5
2016-Jun-22 06:33N 37°33' W 000°43'1615.3
2016-Jun-22 05:32N 37°42' W 000°27'1616.4
2016-Jun-22 04:33N 37°56' W 000°16'3616.7
2016-Jun-22 02:24N 38°26' E 000°09'2216.6
2016-Jun-22 01:04N 38°44' E 000°24'1016.5
2016-Jun-22 00:29N 38°54' E 000°25'4716.0
2016-Jun-21 21:33N 39°26' W 000°19'1 0.6
2016-Jun-21 20:31N 39°27' W 000°19'0 0.0
2016-Jun-21 19:31N 39°27' W 000°19'0 0.0
2016-Jun-21 18:31N 39°27' W 000°19'0 0.0
2016-Jun-21 17:33N 39°27' W 000°19'0 0.0
2016-Jun-21 16:26N 39°27' W 000°19'0 0.0
2016-Jun-21 15:33N 39°27' W 000°19'0 0.0
2016-Jun-21 14:33N 39°27' W 000°19'0 0.0
2016-Jun-21 13:33N 39°27' W 000°19'0 0.0
2016-Jun-21 12:34N 39°27' W 000°19'0 0.0
2016-Jun-21 11:24N 39°27' W 000°19'0 0.0
2016-Jun-21 10:34N 39°27' W 000°19'1 1.4
2016-Jun-21 09:32N 39°26' W 000°18'54 8.8
2016-Jun-21 03:27N 39°21' E 000°51'8 9.0
2016-Jun-21 02:33N 39°20' E 001°01'9 9.0
2016-Jun-21 01:33N 39°19' E 001°13'11 9.4
2016-Jun-21 00:23N 39°18' E 001°27'12 9.1
2016-Jun-20 23:06N 39°17' E 001°42'6 9.1
2016-Jun-20 22:24N 39°15' E 001°50'7 8.8
2016-Jun-20 21:33N 39°13' E 001°59'9 8.7
2016-Jun-20 20:33N 39°11' E 002°10'9 8.6
2016-Jun-20 19:33N 39°08' E 002°21'9 8.6
2016-Jun-20 18:33N 39°05' E 002°31'9 8.8
2016-Jun-20 17:33N 39°02' E 002°41'9 8.8
2016-Jun-20 16:33N 38°60' E 002°52'10 9.8
2016-Jun-20 15:33N 38°57' E 003°04'10 9.7
2016-Jun-20 14:33N 38°55' E 003°17'1010.4
2016-Jun-20 13:32N 38°52' E 003°30'  
Track history (hours):
 
Tides and Currents Weather Stations Pressure Air Temp Water Temp Dewpoint Dewpoint Depression Visibility Wind Speed Wind Dir Waves Ship Positions

CMA CGM Herodote

Last reported at 2016-Jun-29 12:33 UTC. Time now 2016-Jun-29 12:54 UTC.
Position N 51°53' E 003°31'.

Length 170 m; draft 8.5 m.

Type: Ship (hazmat cat A). MMSI: 235051085.

Date/timePositionNaut miles runAvg speedWind from/ knotsBaromVisibWave heightAir tempDewpointWater temp
2016-Jun-29 12:33N 51°53' E 003°31'10 9.5
2016-Jun-29 11:30N 51°48' E 003°17'8 8.8
2016-Jun-29 10:33N 51°40' E 003°19'1313.0
2016-Jun-29 09:33N 51°29' E 003°30'9 9.2
2016-Jun-29 08:34N 51°24' E 003°43'9 8.8
2016-Jun-29 07:33N 51°23' E 003°57'5 5.1
2016-Jun-29 06:33N 51°22' E 004°05'8 7.6
2016-Jun-29 05:34N 51°20' E 004°17'2 2.2
2016-Jun-29 04:31N 51°18' E 004°16'0 0.0
2016-Jun-29 03:31N 51°18' E 004°16'0 0.0
2016-Jun-29 02:31N 51°18' E 004°16'0 0.0
2016-Jun-29 01:31N 51°18' E 004°16'0 0.0
2016-Jun-29 00:31N 51°18' E 004°16'0 0.0
2016-Jun-28 23:31N 51°18' E 004°16'0 0.0
2016-Jun-28 22:31N 51°18' E 004°16'0 0.0
2016-Jun-28 21:28N 51°18' E 004°16'0 0.0
2016-Jun-28 20:31N 51°18' E 004°16'0 0.0
2016-Jun-28 19:31N 51°18' E 004°16'0 0.0
2016-Jun-28 18:28N 51°18' E 004°16'0 0.0
2016-Jun-28 17:31N 51°18' E 004°16'0 0.0
2016-Jun-28 16:33N 51°18' E 004°16'7 6.6
2016-Jun-28 15:33N 51°23' E 004°10'8 8.1
2016-Jun-28 14:33N 51°23' E 003°57'9 9.2
2016-Jun-28 13:34N 51°24' E 003°43'10 9.9
2016-Jun-28 12:34N 51°25' E 003°27'1212.0
2016-Jun-28 11:34N 51°24' E 003°08'1212.4
2016-Jun-28 10:33N 51°22' E 002°48'9 8.5
2016-Jun-28 09:33N 51°26' E 002°36'0 0.2
2016-Jun-28 08:33N 51°26' E 002°36'0 0.0
2016-Jun-28 07:30N 51°26' E 002°36'0 0.0
2016-Jun-28 06:30N 51°26' E 002°36'0 0.0
2016-Jun-28 04:33N 51°26' E 002°36'5 5.1
2016-Jun-28 03:34N 51°22' E 002°32'1515.2
2016-Jun-28 02:33N 51°19' E 002°08'1615.9
2016-Jun-28 01:34N 51°29' E 001°48'1313.1
2016-Jun-28 00:34N 51°28' E 001°27'1312.8
2016-Jun-27 23:33N 51°30' E 001°07'1313.3
2016-Jun-27 22:33N 51°29' E 000°45'1212.5
2016-Jun-27 21:34N 51°27' E 000°26'4 3.5
2016-Jun-27 20:34N 51°27' E 000°20'0 0.0
2016-Jun-27 19:34N 51°27' E 000°20'0 0.0
2016-Jun-27 18:34N 51°27' E 000°20'0 0.0
2016-Jun-27 17:34N 51°27' E 000°20'0 0.0
2016-Jun-27 16:34N 51°27' E 000°20'0 0.0
2016-Jun-27 15:34N 51°27' E 000°20'0 0.0
2016-Jun-27 14:34N 51°27' E 000°20'0 0.0
2016-Jun-27 13:34N 51°27' E 000°20'0 0.0
2016-Jun-27 12:34N 51°27' E 000°20'0 0.0
2016-Jun-27 11:34N 51°27' E 000°20'0 0.0
2016-Jun-27 10:34N 51°27' E 000°20'0 0.0
2016-Jun-27 09:34N 51°27' E 000°20'0 0.0
2016-Jun-27 08:34N 51°27' E 000°20'0 0.0
2016-Jun-27 07:34N 51°27' E 000°20'1 1.5
2016-Jun-27 06:34N 51°27' E 000°22'9 9.2
2016-Jun-27 05:33N 51°30' E 000°36'1413.7
2016-Jun-27 04:33N 51°29' E 000°58'1514.6
2016-Jun-27 03:33N 51°29' E 001°22'1211.5
2016-Jun-27 02:33N 51°21' E 001°35'1413.6
2016-Jun-27 01:34N 51°08' E 001°42'1413.7
2016-Jun-27 00:33N 50°58' E 001°27'1413.6
2016-Jun-26 23:33N 50°45' E 001°20'3213.4
2016-Jun-26 21:12N 50°28' E 000°38'914.1
2016-Jun-26 20:33N 50°25' E 000°25'1413.8
2016-Jun-26 19:33N 50°22' E 000°04'1413.6
2016-Jun-26 18:33N 50°18' W 000°17'1313.1
2016-Jun-26 17:33N 50°14' W 000°36'1312.5
2016-Jun-26 16:33N 50°11' W 000°55'1413.1
2016-Jun-26 15:27N 50°08' W 001°17'1314.3
2016-Jun-26 14:33N 50°04' W 001°36'1615.5
2016-Jun-26 13:31N 49°59' W 001°60'1616.3
2016-Jun-26 12:33N 49°56' W 002°24'1616.2
2016-Jun-26 11:34N 49°51' W 002°47'1615.7
2016-Jun-26 10:34N 49°43' W 003°09'1616.4
2016-Jun-26 09:33N 49°34' W 003°30'1716.3
2016-Jun-26 08:31N 49°25' W 003°52'6316.0
2016-Jun-26 04:33N 48°54' W 005°17'1312.7
2016-Jun-26 03:33N 48°48' W 005°33'61617.0
2016-Jun-24 15:23N 39°00' W 009°52'1517.5
2016-Jun-24 14:32N 38°45' W 009°52'1717.3
2016-Jun-24 13:34N 38°29' W 009°48'1717.1
2016-Jun-24 12:33N 38°12' W 009°42'1817.6
2016-Jun-24 11:33N 37°55' W 009°38'1818.0
2016-Jun-24 10:33N 37°37' W 009°33'2218.5
2016-Jun-24 09:20N 37°15' W 009°27'1518.8
2016-Jun-24 08:33N 37°01' W 009°22'1916.9
2016-Jun-24 07:27N 36°45' W 009°10'5117.3
2016-Jun-24 04:29N 36°29' W 008°09'1717.7
2016-Jun-24 03:30N 36°24' W 007°48'1717.8
2016-Jun-24 02:34N 36°18' W 007°29'4117.5
2016-Jun-24 00:14N 36°05' W 006°41'3217.3
2016-Jun-23 22:21N 35°57' W 006°02'1517.5
2016-Jun-23 21:29N 35°57' W 005°43'160146.4
2016-Jun-23 20:24N 36°23' W 002°27'0 0.0
2016-Jun-23 19:33N 36°23' W 002°27'8 6.2
2016-Jun-23 18:19N 36°22' W 002°37'0 0.0
2016-Jun-23 17:28N 36°22' W 002°37'8 6.0
2016-Jun-23 16:11N 36°23' W 002°27'0 0.0
2016-Jun-23 15:20N 36°23' W 002°27'0 0.0
2016-Jun-23 14:29N 36°23' W 002°27'15177.6
2016-Jun-23 12:32N 35°57' W 005°32'1211.8
2016-Jun-23 11:33N 36°00' W 005°18'140108.8
2016-Jun-23 10:16N 36°23' W 002°27'8 3.7
2016-Jun-23 08:11N 36°22' W 002°37'0 0.0
2016-Jun-23 07:20N 36°22' W 002°37'8 3.6
2016-Jun-23 05:12N 36°23' W 002°27'5711.4
2016-Jun-23 00:12N 37°02' W 001°35'1218.1
2016-Jun-22 23:34N 37°10' W 001°25'2118.0
2016-Jun-22 22:22N 37°26' W 001°07'1113.3
2016-Jun-22 21:31N 37°35' W 000°59'2 0.2
2016-Jun-22 07:30N 37°33' W 000°59'1313.5
2016-Jun-22 06:33N 37°33' W 000°43'1615.3
2016-Jun-22 05:32N 37°42' W 000°27'1616.4
2016-Jun-22 04:33N 37°56' W 000°16'3616.7
2016-Jun-22 02:24N 38°26' E 000°09'2216.6
2016-Jun-22 01:04N 38°44' E 000°24'1016.5
2016-Jun-22 00:29N 38°54' E 000°25'4716.0
2016-Jun-21 21:33N 39°26' W 000°19'1 0.6
2016-Jun-21 20:31N 39°27' W 000°19'0 0.0
2016-Jun-21 19:31N 39°27' W 000°19'0 0.0
2016-Jun-21 18:31N 39°27' W 000°19'0 0.0
2016-Jun-21 17:33N 39°27' W 000°19'0 0.0
2016-Jun-21 16:26N 39°27' W 000°19'0 0.0
2016-Jun-21 15:33N 39°27' W 000°19'0 0.0
2016-Jun-21 14:33N 39°27' W 000°19'0 0.0
2016-Jun-21 13:33N 39°27' W 000°19'0 0.0
2016-Jun-21 12:34N 39°27' W 000°19'0 0.0
2016-Jun-21 11:24N 39°27' W 000°19'0 0.0
2016-Jun-21 10:34N 39°27' W 000°19'1 1.4
2016-Jun-21 09:32N 39°26' W 000°18'54 8.8
2016-Jun-21 03:27N 39°21' E 000°51'8 9.0
2016-Jun-21 02:33N 39°20' E 001°01'9 9.0
2016-Jun-21 01:33N 39°19' E 001°13'11 9.4
2016-Jun-21 00:23N 39°18' E 001°27'12 9.1
2016-Jun-20 23:06N 39°17' E 001°42'6 9.1
2016-Jun-20 22:24N 39°15' E 001°50'7 8.8
2016-Jun-20 21:33N 39°13' E 001°59'9 8.7
2016-Jun-20 20:33N 39°11' E 002°10'9 8.6
2016-Jun-20 19:33N 39°08' E 002°21'9 8.6
2016-Jun-20 18:33N 39°05' E 002°31'9 8.8
2016-Jun-20 17:33N 39°02' E 002°41'9 8.8
2016-Jun-20 16:33N 38°60' E 002°52'10 9.8
2016-Jun-20 15:33N 38°57' E 003°04'10 9.7
2016-Jun-20 14:33N 38°55' E 003°17'1010.4
2016-Jun-20 13:32N 38°52' E 003°30'  

Dump ship's entire track history